METAR Data
IDs: Format: Raw Decoded Include TAF

Data at: 0853 UTC 07 Dec 2021

KFLL 070753Z 29003KT 10SM CLR 21/21 A3005 RMK AO2 SLP175 T02110211 $
KFLL 070653Z 26003KT 5SM BR SCT002 22/22 A3006 RMK AO2 SLP178 T02170217 $
KFLL 070645Z 26004KT 1/2SM R10L/P6000FT FG BKN002 OVC004 22/22 A3006 RMK AO2 T02170217 $
KFLL 070625Z 00000KT 1/4SM R10L/6000VP6000FT FG VV002 22/22 A3007 RMK AO2 T02170217 $
KFLL 070553Z 28005KT 3/4SM R10L/4000VP6000FT BR SCT002 OVC004 22/22 A3007 RMK AO2 SLP182 T02220222 10244 20222 58003 $
KFLL 070550Z 28005KT 3/4SM R10L/2600VP6000FT BR SCT002 OVC004 22/22 A3007 RMK AO2 $
KFLL 070511Z 26004KT 1/4SM R10L/2000VP6000FT FG VV002 22/22 A3007 RMK AO2 T02220222 $
KFLL 070503Z 27004KT 1/2SM R10L/5000VP6000FT FG VV003 22/22 A3007 RMK AO2 T02220222 $
KFLL 070453Z 00000KT 3SM BR BKN004 OVC007 22/22 A3007 RMK AO2 SLP183 T02220222 402720222 $
KFLL 070442Z 00000KT 5SM BR BKN004 23/23 A3007 RMK AO2 T02280228 $
KFLL 070406Z 28003KT 8SM SCT006 23/23 A3008 RMK AO2 T02280228 $
KFLL 070353Z 28003KT 10SM BKN006 23/23 A3008 RMK AO2 SLP186 T02280228 $
KFLL 070253Z 00000KT 10SM SCT055 23/23 A3008 RMK AO2 SLP185 T02330233 51009 $
KFLL 070153Z VRB04KT 10SM FEW025 SCT055 SCT250 24/24 A3007 RMK AO2 SLP183 T02390239 $
KFLL 070053Z 20004KT 10SM BKN046 24/24 A3007 RMK AO2 SLP181 T02390239 $
KFLL 062353Z 00000KT 10SM FEW003 FEW025 SCT095 24/24 A3005 RMK AO2 SLP176 60144 T02390239 10267 20233 53006 $
KFLL 062253Z 00000KT 10SM FEW025 SCT075 BKN100 BKN250 24/24 A3005 RMK AO2 SLP174 T02440239 /
KFLL 062153Z 13004KT 10SM FEW006 SCT075 BKN100 25/24 A3004 RMK AO2 SLP171 CB DSNT NE-SE MOV NE T02500239 $
KFLL 062126Z 00000KT 10SM FEW005 SCT025 BKN060 24/24 A3004 RMK AO2 LTG DSNT N AND NE CB DSNT NE-SE MOV NE T02440244 $
KFLL 062053Z 36003KT 10SM VCTS FEW005 SCT025 BKN043 24/24 A3003 RMK AO2 LTG DSNT NE RAE49 TSE36 SLP169 CB DSNT NE-SE MOV NE P0046 60144 T02440244 58000 $
KFLL 062050Z 35003KT 10SM VCTS FEW005 SCT025 BKN043 24/24 A3003 RMK AO2 LTG DSNT NE AND E RAE49 TSE36 CB DSNT NE-SE MOV NE P0046 $
KFLL 062042Z 00000KT 7SM VCTS -RA SCT027 BKN043 BKN080 24/24 A3004 RMK AO2 LTG DSNT NE AND E TSE36 OCNL LTGICCG DSNT NE CB DSNT NE-SE MOV NE P0046 T02390239 $
KFLL 062031Z 31003KT 4SM -TSRA BR FEW005 SCT025CB BKN060 23/23 A3004 RMK AO2 LTG DSNT N-E OCNL LTGICCG NE TS NE MOV NE CB N DSNT N-NE SE MOV NE P0046 T02330233 $
KFLL 062023Z 00000KT 2 1/2SM R10L/4500VP6000FT TSRA BR FEW007 BKN024CB OVC050 23/23 A3004 RMK AO2 LTG DSNT N VIS SW 4 OCNL LTGICCG N-E TS N-E MOV NE P0045 T02330233 $
KFLL 062010Z VRB03KT 1 1/4SM R10L/3000VP6000FT +TSRA BR FEW005 OVC018CB 23/23 A3005 RMK AO2 LTG DSNT NE OCNL LTGICCG NW-NE TS NW-NE MOV NE P0041 T02330233 $
KFLL 061953Z 22009KT 2SM R10L/2000V3000FT +TSRA BR FEW005 SCT010 OVC020CB 23/23 A3005 RMK AO2 RAEMMB34 SLP176 OCNL LTGIC OHD-SE-SW TS OHD-SE-SW MOV NE CB ALQDS MOV NE P0098 T02330233 $
KFLL 061932Z COR 23009KT 2SM R10L/3000V5000FT TS BR FEW008 BKN016CB KN065 24/24 A3004 RMK AO2 LTG DSNT N AND NW RAEMM OCNL LTGIC SW TS SW MOV NE P0020 T02440244
KFLL 061927Z 21012KT 3SM R10L/3500VP6000FT +RA BR FEW008 BKN016 OVC065 26/25 A3004 RMK AO2 LTG DSNT N AND NW P0011 T02560250
KFLL 061853Z 16012KT 10SM -RA SCT015 BKN030 BKN065 26/24 A3003 RMK AO2 RAB52 SLP170 P0000 T02610244
KFLL 061839Z 14015KT 10SM VCTS SCT015 BKN030 OVC065 27/24 A3004 RMK AO2 T02670244
KFLL 061753Z 14013KT 10SM FEW015 SCT023 BKN050 27/24 A3006 RMK AO2 SLP177 60011 T02670244 10272 20233 58027
KFLL 061653Z 14011KT 10SM SCT015 BKN023 BKN046 27/25 A3009 RMK AO2 SLP188 T02720250
KFLL 061553Z 17004KT 10SM SCT015 BKN022 26/25 A3012 RMK AO2 RAE09 SLP200 P0002 T02610250
KFLL 061453Z 31003KT 7SM -RA SCT022 SCT032 BKN055 24/24 A3013 RMK AO2 RAB03 SLP204 P0007 60009 T02440244 53011
KFLL 061353Z 35003KT 10SM BKN019 BKN070 24/24 A3012 RMK AO2 RAE32 SLP200 P0000 T02390239
KFLL 061253Z 00000KT 9SM -RA SCT016 BKN035 BKN050 23/23 A3011 RMK AO2 RAE20B46 SLP196 P0002 T02330233
KFLL 061225Z 00000KT 10SM FEW009 SCT019 BKN040 23/23 A3011 RMK AO2 RAE20 P0001 T02330233
KFLL 061153Z 34003KT 7SM -RA FEW014 BKN040 OVC070 23/23 A3010 RMK AO2 RAB31 SLP193 P0005 60011 70013 T02330233 10244 20228 53009
KFLL 061136Z 00000KT 6SM RA BR FEW014 BKN026 OVC065 23/23 A3010 RMK AO2 RAB31 P0002 T02280228
KFLL 061053Z 00000KT 10SM FEW035 BKN055 23/23 A3008 RMK AO2 RAB01E14 SLP186 P0002 T02330233
KFLL 060953Z 00000KT 10SM FEW021 SCT042 BKN055 23/23 A3007 RMK AO2 RAB21E32 SLP184 P0000 T02280228
KFLL 060936Z 00000KT 10SM FEW016 SCT023 BKN048 23/23 A3008 RMK AO2 RAB21E32 P0000 T02280228
KFLL 060921Z 00000KT 10SM -RA BKN019 BKN047 OVC080 23/23 A3007 RMK AO2 RAB21 P0000 T02330233
KFLL 060853Z 00000KT 10SM SCT034 BKN048 OVC055 23/23 A3008 RMK AO2 RAB07E43 SLP184 P0002 60004 T02330233 56009
KFLL 060753Z 00000KT 10SM SCT020 SCT027 BKN046 23/23 A3008 RMK AO2 RAB0654E03B19E39 SLP184 P0002 T02330228
KFLL 060653Z 13004KT 10SM FEW036 FEW048 BKN060 23/22 A3009 RMK AO2 SLP190 T02330217
KFLL 060553Z 00000KT 10SM FEW037 BKN060 24/21 A3010 RMK AO2 SLP193 T02440211 10250 20233 58002
KFLL 060453Z 13005KT 10SM SCT024 BKN036 BKN050 25/22 A3011 RMK AO2 SLP195 T02500217 402720200
KFLL 060353Z 13006KT 10SM BKN034 24/21 A3011 RMK AO2 SLP195 T02440206
KFLL 060253Z 12004KT 10SM FEW065 24/21 A3011 RMK AO2 SLP195 T02390211 51007
KFLL 060153Z 13004KT 10SM FEW029 FEW120 23/21 A3011 RMK AO2 SLP195 T02330211
KFLL 060053Z 14005KT 10SM FEW026 24/21 A3009 RMK AO2 SLP190 T02390211
KFLL 052353Z 09005KT 10SM FEW025 24/22 A3009 RMK AO2 SLP187 T02390217 10272 20233 53006
KFLL 052253Z 09007KT 10SM SCT025 BKN050 24/22 A3008 RMK AO2 SLP184 T02390217
KFLL 052153Z 09008KT 10SM SCT025 SCT060 25/21 A3007 RMK AO2 SLP182 T02500206